createdAt,value
2019-02-24T00:00:40.447Z,25.90
2019-02-24T00:03:09.386Z,29.23
2019-02-24T00:05:37.859Z,27.17
2019-02-24T00:08:06.483Z,19.70
2019-02-24T00:10:35.015Z,24.40
2019-02-24T00:13:03.747Z,18.67
2019-02-24T00:15:32.600Z,22.70
2019-02-24T00:18:01.336Z,21.77
2019-02-24T00:20:30.062Z,24.93
2019-02-24T00:22:58.547Z,22.37
2019-02-24T00:25:27.507Z,21.33
2019-02-24T00:27:56.527Z,23.70
2019-02-24T00:30:25.031Z,23.60
2019-02-24T00:32:53.615Z,19.53
2019-02-24T00:35:22.479Z,22.07
2019-02-24T00:37:52.375Z,22.07
2019-02-24T00:40:21.487Z,24.27
2019-02-24T00:42:49.979Z,23.30
2019-02-24T00:45:18.995Z,17.83
2019-02-24T00:47:47.569Z,18.97
2019-02-24T00:50:16.347Z,18.77
2019-02-24T00:52:45.202Z,19.80
2019-02-24T00:55:13.872Z,16.47
2019-02-24T00:57:42.599Z,20.67
2019-02-24T01:00:11.250Z,17.12
2019-02-24T01:02:40.191Z,15.33
2019-02-24T01:05:09.314Z,14.83
2019-02-24T01:10:37.131Z,14.03
2019-02-24T01:13:06.307Z,18.60
2019-02-24T01:15:35.195Z,17.73
2019-02-24T01:18:04.038Z,16.53
2019-02-24T01:20:33.264Z,18.47
2019-02-24T01:23:01.763Z,17.03
2019-02-24T01:25:30.614Z,16.90
2019-02-24T01:27:59.799Z,15.63
2019-02-24T01:30:28.396Z,16.47
2019-02-24T01:32:56.950Z,17.00
2019-02-24T01:35:25.594Z,16.43
2019-02-24T01:37:54.437Z,17.80
2019-02-24T01:40:23.122Z,13.87
2019-02-24T01:42:51.694Z,14.50
2019-02-24T01:45:20.180Z,13.80
2019-02-24T01:47:49.018Z,16.90
2019-02-24T01:50:17.770Z,13.73
2019-02-24T01:52:46.851Z,14.63
2019-02-24T01:55:15.406Z,17.47
2019-02-24T01:57:43.880Z,17.73
2019-02-24T02:00:12.766Z,16.80
2019-02-24T02:02:41.326Z,17.97
2019-02-24T02:05:09.838Z,19.07
2019-02-24T02:07:38.324Z,16.10
2019-02-24T02:10:06.916Z,14.40
2019-02-24T02:12:35.386Z,14.53
2019-02-24T02:15:03.914Z,16.13
2019-02-24T02:17:32.390Z,14.83
2019-02-24T02:20:00.942Z,13.60
2019-02-24T02:22:29.482Z,16.53
2019-02-24T02:24:57.966Z,17.37
2019-02-24T02:27:26.418Z,12.57
2019-02-24T02:29:55.554Z,11.50
2019-02-24T02:32:24.122Z,13.83
2019-02-24T02:34:53.106Z,11.70
2019-02-24T02:37:21.859Z,17.00
2019-02-24T02:39:51.049Z,14.83
2019-02-24T02:42:19.841Z,13.67
2019-02-24T02:44:48.306Z,14.40
2019-02-24T02:47:16.786Z,15.23
2019-02-24T02:49:45.630Z,16.67
2019-02-24T02:52:14.426Z,17.17
2019-02-24T02:54:43.845Z,19.30
2019-02-24T02:57:12.571Z,16.57
2019-02-24T02:59:41.663Z,13.10
2019-02-24T03:02:10.270Z,15.37
2019-02-24T03:04:39.334Z,13.17
2019-02-24T03:07:12.542Z,18.90
2019-02-24T03:09:41.350Z,14.53
2019-02-24T03:12:10.481Z,13.97
2019-02-24T03:14:39.203Z,12.90
2019-02-24T03:17:07.702Z,14.97
2019-02-24T03:19:36.533Z,15.70
2019-02-24T03:22:05.010Z,12.77
2019-02-24T03:24:33.798Z,13.93
2019-02-24T03:27:02.370Z,17.53
2019-02-24T03:29:30.897Z,11.77
2019-02-24T03:31:59.487Z,14.20
2019-02-24T03:34:28.017Z,13.73
2019-02-24T03:36:56.474Z,13.33
2019-02-24T03:39:25.657Z,13.17
2019-02-24T03:41:54.198Z,16.13
2019-02-24T03:44:22.738Z,15.90
2019-02-24T03:46:51.410Z,14.83
2019-02-24T03:49:19.992Z,16.63
2019-02-24T03:51:48.499Z,14.90
2019-02-24T03:54:17.039Z,15.20
2019-02-24T03:56:46.338Z,15.33
2019-02-24T03:59:15.548Z,14.10
2019-02-24T04:01:44.130Z,14.80
2019-02-24T04:04:12.631Z,16.87
2019-02-24T04:06:41.117Z,15.90
2019-02-24T04:09:10.002Z,15.70
2019-02-24T04:11:38.959Z,16.63
2019-02-24T04:14:07.874Z,14.50
2019-02-24T04:16:36.357Z,17.73
2019-02-24T04:19:04.853Z,18.97
2019-02-24T04:21:33.621Z,18.80
2019-02-24T04:24:02.108Z,16.77
2019-02-24T04:26:30.998Z,15.10
2019-02-24T04:28:59.550Z,14.93
2019-02-24T04:31:28.177Z,21.47
2019-02-24T04:33:56.661Z,15.33
2019-02-24T04:36:25.165Z,15.47
2019-02-24T04:38:53.637Z,18.90
2019-02-24T04:41:22.118Z,18.27
2019-02-24T04:43:50.951Z,18.83
2019-02-24T04:46:19.457Z,18.77
2019-02-24T04:48:48.247Z,15.50
2019-02-24T04:51:16.769Z,13.83
2019-02-24T04:53:45.548Z,17.73
2019-02-24T04:56:14.083Z,16.03
2019-02-24T04:58:42.881Z,12.40
2019-02-24T05:01:11.393Z,16.87
2019-02-24T05:03:40.662Z,16.10
2019-02-24T05:06:09.138Z,19.03
2019-02-24T05:08:38.036Z,17.27
2019-02-24T05:11:06.565Z,16.47
2019-02-24T05:13:35.737Z,17.13
2019-02-24T05:16:05.441Z,17.80
2019-02-24T05:18:33.961Z,16.07
2019-02-24T05:21:02.868Z,17.10
2019-02-24T05:23:31.544Z,17.10
2019-02-24T05:26:01.129Z,17.10
2019-02-24T05:28:29.901Z,18.77
2019-02-24T05:30:58.695Z,17.33
2019-02-24T05:33:27.445Z,16.47
2019-02-24T05:35:55.921Z,17.17
2019-02-24T05:38:24.501Z,15.40
2019-02-24T05:40:53.501Z,18.47
2019-02-24T05:43:22.176Z,17.13
2019-02-24T05:45:50.942Z,15.90
2019-02-24T05:48:19.468Z,19.23
2019-02-24T05:50:48.020Z,22.60
2019-02-24T05:53:16.784Z,21.00
2019-02-24T05:55:45.236Z,17.23
2019-02-24T05:58:13.748Z,16.13
2019-02-24T06:00:42.212Z,14.90
2019-02-24T06:03:10.735Z,16.00
2019-02-24T06:05:39.912Z,14.87
2019-02-24T06:08:08.398Z,15.13
2019-02-24T06:10:36.933Z,16.47
2019-02-24T06:13:05.480Z,17.90
2019-02-24T06:15:34.056Z,16.43
2019-02-24T06:18:02.520Z,15.33
2019-02-24T06:20:31.030Z,16.57
2019-02-24T06:22:59.560Z,14.17
2019-02-24T06:25:28.573Z,15.90
2019-02-24T06:27:57.100Z,13.90
2019-02-24T06:30:25.684Z,20.03
2019-02-24T06:32:54.264Z,16.00
2019-02-24T06:35:22.859Z,21.05
2019-02-24T06:37:52.684Z,19.93
2019-02-24T06:40:21.481Z,21.57
2019-02-24T06:42:50.008Z,21.90
2019-02-24T06:45:18.508Z,18.87
2019-02-24T06:47:47.004Z,14.10
2019-02-24T06:50:15.568Z,16.30
2019-02-24T06:52:44.421Z,16.07
2019-02-24T06:55:12.939Z,15.32
2019-02-24T06:57:41.932Z,11.67
2019-02-24T07:00:14.110Z,17.80
2019-02-24T07:02:39.336Z,14.27
2019-02-24T07:05:07.967Z,11.50
2019-02-24T07:07:36.463Z,18.63
2019-02-24T07:10:05.116Z,15.50
2019-02-24T07:12:34.468Z,15.97
2019-02-24T07:15:02.964Z,18.40
2019-02-24T07:17:31.972Z,18.00
2019-02-24T07:20:00.484Z,17.00
2019-02-24T07:22:29.168Z,15.83
2019-02-24T07:24:57.653Z,11.83
2019-02-24T07:27:26.480Z,14.37
2019-02-24T07:29:55.211Z,14.53
2019-02-24T07:32:24.027Z,12.77
2019-02-24T07:34:52.679Z,12.40
2019-02-24T07:37:21.524Z,13.83
2019-02-24T07:39:50.211Z,12.13
2019-02-24T07:42:18.931Z,13.23
2019-02-24T07:44:47.757Z,18.07
2019-02-24T07:47:16.899Z,14.60
2019-02-24T07:49:45.411Z,12.33
2019-02-24T07:52:13.923Z,12.10
2019-02-24T07:54:42.797Z,12.17
2019-02-24T07:57:11.567Z,14.03
2019-02-24T07:59:40.399Z,16.80
2019-02-24T08:02:09.247Z,15.17
2019-02-24T08:04:37.827Z,14.63
2019-02-24T08:07:06.432Z,13.13
2019-02-24T08:09:34.967Z,14.47
2019-02-24T08:12:03.727Z,16.43
2019-02-24T08:14:32.207Z,13.27
2019-02-24T08:17:00.699Z,15.90
2019-02-24T08:19:30.091Z,17.60
2019-02-24T08:21:58.139Z,16.43
2019-02-24T08:24:26.639Z,21.27
2019-02-24T08:26:55.115Z,21.53
2019-02-24T08:29:23.608Z,13.77
2019-02-24T08:31:52.152Z,18.37
2019-02-24T08:34:20.946Z,14.37
2019-02-24T08:36:49.460Z,13.90
2019-02-24T08:39:18.359Z,12.27
2019-02-24T08:41:46.811Z,15.27
2019-02-24T08:44:15.336Z,12.87
2019-02-24T08:46:43.847Z,17.33
2019-02-24T08:49:12.372Z,13.80
2019-02-24T08:51:40.931Z,20.00
2019-02-24T08:54:09.768Z,12.43
2019-02-24T08:56:38.862Z,14.60
2019-02-24T08:59:07.423Z,11.93
2019-02-24T09:01:35.995Z,11.08
2019-02-24T09:04:04.831Z,11.83
2019-02-24T09:06:33.455Z,13.53
2019-02-24T09:09:02.845Z,15.13
2019-02-24T09:11:31.822Z,11.80
2019-02-24T09:14:00.379Z,11.70
2019-02-24T09:16:28.897Z,15.83
2019-02-24T09:18:57.428Z,17.02
2019-02-24T09:21:25.954Z,11.00
2019-02-24T09:23:54.478Z,13.85
2019-02-24T09:26:22.966Z,13.40
2019-02-24T09:28:52.119Z,12.70
2019-02-24T09:31:20.639Z,14.18
2019-02-24T09:33:49.171Z,15.08
2019-02-24T09:36:18.415Z,11.55
2019-02-24T09:38:47.203Z,14.18
2019-02-24T09:41:16.007Z,12.45
2019-02-24T09:43:44.925Z,13.85
2019-02-24T09:46:13.471Z,12.37
2019-02-24T09:48:42.114Z,12.85
2019-02-24T09:51:10.650Z,16.70
2019-02-24T09:53:39.178Z,11.18
2019-02-24T09:56:07.728Z,14.10
2019-02-24T09:58:36.323Z,16.90
2019-02-24T10:01:10.675Z,11.45
2019-02-24T10:03:33.714Z,17.42
2019-02-24T10:06:02.250Z,13.68
2019-02-24T10:08:30.938Z,16.77
2019-02-24T10:10:59.434Z,13.55
2019-02-24T10:13:27.918Z,14.30
2019-02-24T10:15:56.431Z,19.63
2019-02-24T10:18:24.970Z,19.62
2019-02-24T10:20:53.878Z,24.45
2019-02-24T10:23:22.491Z,14.73
2019-02-24T10:25:51.211Z,18.35
2019-02-24T10:28:19.789Z,18.07
2019-02-24T10:30:48.750Z,16.17
2019-02-24T10:33:17.294Z,22.45
2019-02-24T10:35:45.870Z,19.00
2019-02-24T10:38:14.426Z,16.55
2019-02-24T10:40:42.950Z,19.90
2019-02-24T10:43:11.598Z,14.45
2019-02-24T10:45:40.090Z,16.87
2019-02-24T10:48:13.931Z,17.82
2019-02-24T10:50:37.766Z,15.10
2019-02-24T10:53:06.290Z,20.08
2019-02-24T10:55:35.103Z,24.87
2019-02-24T10:58:03.778Z,16.65
2019-02-24T11:00:32.678Z,20.35
2019-02-24T11:03:01.174Z,22.22
2019-02-24T11:05:29.759Z,16.48
2019-02-24T11:07:58.306Z,16.93
2019-02-24T11:10:27.182Z,19.55
2019-02-24T11:12:56.281Z,20.82
2019-02-24T11:15:24.830Z,25.52
2019-02-24T11:17:53.408Z,20.10
2019-02-24T11:20:22.014Z,19.27
2019-02-24T11:22:51.047Z,19.80
2019-02-24T11:25:19.769Z,18.98
2019-02-24T11:27:48.682Z,26.87
2019-02-24T11:30:17.171Z,26.35
2019-02-24T11:32:45.705Z,19.87
2019-02-24T11:35:14.275Z,21.75
2019-02-24T11:37:42.800Z,20.52
2019-02-24T11:40:11.354Z,26.73
2019-02-24T11:42:39.989Z,19.27
2019-02-24T11:45:08.702Z,26.27
2019-02-24T11:47:38.033Z,24.63
2019-02-24T11:50:07.346Z,25.00
2019-02-24T11:52:35.886Z,25.97
2019-02-24T11:55:04.469Z,22.15
2019-02-24T11:57:33.022Z,18.95
2019-02-24T12:00:02.226Z,21.95
2019-02-24T12:02:34.501Z,20.62
2019-02-24T12:04:59.381Z,13.98
2019-02-24T12:07:27.849Z,16.20
2019-02-24T12:09:56.441Z,14.28
2019-02-24T12:12:25.659Z,17.65
2019-02-24T12:14:54.177Z,18.55
2019-02-24T12:17:22.733Z,19.80
2019-02-24T12:19:51.437Z,19.57
2019-02-24T12:22:19.969Z,16.17
2019-02-24T12:24:48.578Z,18.15
2019-02-24T12:27:17.197Z,16.50
2019-02-24T12:29:45.781Z,17.65
2019-02-24T12:32:14.313Z,21.57
2019-02-24T12:34:42.925Z,19.37
2019-02-24T12:37:11.555Z,18.50
2019-02-24T12:39:40.325Z,17.62
2019-02-24T12:42:09.269Z,17.62
2019-02-24T12:44:37.937Z,15.80
2019-02-24T12:47:06.625Z,17.60
2019-02-24T12:49:35.513Z,19.30
2019-02-24T12:52:04.041Z,15.88
2019-02-24T12:54:32.681Z,19.50
2019-02-24T12:57:01.213Z,18.57
2019-02-24T12:59:29.743Z,18.12
2019-02-24T13:02:05.489Z,15.70
2019-02-24T13:04:28.859Z,19.77
2019-02-24T13:06:57.562Z,21.95
2019-02-24T13:09:24.762Z,20.20
2019-02-24T13:11:53.257Z,18.48
2019-02-24T13:14:21.809Z,20.60
2019-02-24T13:16:50.493Z,16.90
2019-02-24T13:19:19.605Z,20.62
2019-02-24T13:21:48.203Z,17.62
2019-02-24T13:24:16.705Z,18.87
2019-02-24T13:26:45.389Z,17.07
2019-02-24T13:29:14.025Z,17.50
2019-02-24T13:31:42.605Z,19.70
2019-02-24T13:34:11.293Z,17.17
2019-02-24T13:36:39.801Z,17.52
2019-02-24T13:39:08.461Z,18.55
2019-02-24T13:41:37.113Z,17.85
2019-02-24T13:44:05.701Z,19.80
2019-02-24T13:46:34.633Z,16.42
2019-02-24T13:49:03.180Z,20.10
2019-02-24T13:51:32.113Z,20.37
2019-02-24T13:54:00.960Z,16.55
2019-02-24T13:56:29.533Z,19.60
2019-02-24T13:58:58.469Z,17.20
2019-02-24T14:01:27.348Z,16.45
2019-02-24T14:03:55.881Z,15.65
2019-02-24T14:06:25.004Z,18.87
2019-02-24T14:08:53.532Z,17.82
2019-02-24T14:11:22.066Z,18.55
2019-02-24T14:13:50.620Z,18.42
2019-02-24T14:16:19.140Z,19.67
2019-02-24T14:18:47.676Z,18.02
2019-02-24T14:21:16.328Z,20.00
2019-02-24T14:23:44.860Z,16.50
2019-02-24T14:26:13.388Z,18.20
2019-02-24T14:28:42.048Z,15.65
2019-02-24T14:31:10.652Z,22.67
2019-02-24T14:33:39.477Z,17.80
2019-02-24T14:36:08.104Z,17.70
2019-02-24T14:38:36.649Z,19.00
2019-02-24T14:41:05.204Z,18.48
2019-02-24T14:43:35.345Z,21.90
2019-02-24T14:46:16.160Z,21.37
2019-02-24T14:48:45.121Z,21.65
2019-02-24T14:51:13.664Z,21.52
2019-02-24T14:53:42.784Z,15.50
2019-02-24T14:56:11.368Z,17.77
2019-02-24T14:58:40.268Z,14.93
2019-02-24T15:01:09.072Z,16.65
2019-02-24T15:03:37.628Z,12.75
2019-02-24T15:06:06.702Z,15.68
2019-02-24T15:08:35.584Z,14.20
2019-02-24T15:11:05.025Z,18.90
2019-02-24T15:13:33.897Z,17.87
2019-02-24T15:16:02.681Z,15.58
2019-02-24T15:18:31.651Z,19.05
2019-02-24T15:21:00.600Z,17.23
2019-02-24T15:23:29.116Z,18.42
2019-02-24T15:25:57.668Z,12.33
2019-02-24T15:28:26.624Z,11.95
2019-02-24T15:30:55.465Z,11.35
2019-02-24T15:33:24.828Z,12.17
2019-02-24T15:35:53.848Z,10.15
2019-02-24T15:38:22.867Z,11.43
2019-02-24T15:40:51.792Z,9.68
2019-02-24T15:43:20.408Z,13.90
2019-02-24T15:45:49.155Z,14.55
2019-02-24T15:48:17.691Z,16.13
2019-02-24T15:50:46.223Z,14.75
2019-02-24T15:53:14.849Z,15.07
2019-02-24T15:55:43.374Z,12.35
2019-02-24T15:58:11.933Z,14.15
2019-02-24T16:00:40.896Z,16.45
2019-02-24T16:03:10.220Z,14.20
2019-02-24T16:05:38.828Z,17.27
2019-02-24T16:08:07.447Z,28.77
2019-02-24T16:10:36.415Z,25.27
2019-02-24T16:13:04.971Z,20.52
2019-02-24T16:15:33.863Z,19.92
2019-02-24T16:18:02.855Z,19.20
2019-02-24T16:20:31.703Z,16.80
2019-02-24T16:23:00.581Z,17.82
2019-02-24T16:25:29.167Z,21.05
2019-02-24T16:27:57.847Z,14.87
2019-02-24T16:30:26.795Z,16.07
2019-02-24T16:32:55.339Z,12.37
2019-02-24T16:35:23.911Z,15.80
2019-02-24T16:37:52.763Z,12.28
2019-02-24T16:40:21.424Z,16.12
2019-02-24T16:42:50.001Z,14.65
2019-02-24T16:45:18.693Z,12.75
2019-02-24T16:47:47.607Z,14.90
2019-02-24T16:50:16.735Z,15.58
2019-02-24T16:52:45.311Z,15.93
2019-02-24T16:55:14.835Z,17.23
2019-02-24T16:57:43.455Z,16.00
2019-02-24T17:00:13.985Z,18.07
2019-02-24T17:02:42.823Z,15.60
2019-02-24T17:05:12.000Z,26.83
2019-02-24T17:07:40.588Z,19.35
2019-02-24T17:10:10.747Z,23.77
2019-02-24T17:12:39.368Z,24.12
2019-02-24T17:15:08.765Z,26.65
2019-02-24T17:17:37.431Z,18.77
2019-02-24T17:20:07.251Z,24.18
2019-02-24T17:22:35.823Z,26.45
2019-02-24T17:25:05.216Z,26.97
2019-02-24T17:27:33.772Z,28.12
2019-02-24T17:30:03.059Z,27.65
2019-02-24T17:32:31.587Z,29.27
2019-02-24T17:35:00.242Z,28.83
2019-02-24T17:37:45.774Z,29.52
2019-02-24T17:40:14.427Z,34.90
2019-02-24T17:42:43.252Z,36.73
2019-02-24T17:45:12.367Z,30.50
2019-02-24T17:47:41.355Z,42.85
2019-02-24T17:50:11.022Z,29.02
2019-02-24T17:52:39.627Z,29.75
2019-02-24T17:55:09.814Z,32.63
2019-02-24T17:57:38.814Z,31.15
2019-02-24T18:00:12.227Z,27.87
2019-02-24T18:02:40.884Z,29.92
2019-02-24T18:05:09.458Z,36.00
2019-02-24T18:07:38.017Z,36.33
2019-02-24T18:10:06.642Z,38.53
2019-02-24T18:12:35.522Z,39.88
2019-02-24T18:15:05.826Z,38.40
2019-02-24T18:17:34.371Z,33.85
2019-02-24T18:20:02.930Z,37.33
2019-02-24T18:22:31.495Z,39.95
2019-02-24T18:25:03.159Z,35.35
2019-02-24T18:27:28.614Z,34.10
2019-02-24T18:29:57.659Z,35.60
2019-02-24T18:32:26.858Z,49.00
2019-02-24T18:34:55.339Z,50.30
2019-02-24T18:37:24.258Z,41.13
2019-02-24T18:39:52.926Z,44.53
2019-02-24T18:42:21.827Z,50.03
2019-02-24T18:44:50.901Z,49.27
2019-02-24T18:47:19.433Z,45.63
2019-02-24T18:49:48.358Z,47.30
2019-02-24T18:52:16.938Z,43.20
2019-02-24T18:54:45.578Z,41.75
2019-02-24T18:57:15.880Z,46.42
2019-02-24T18:59:43.021Z,44.65
2019-02-24T19:02:11.910Z,39.17
2019-02-24T19:04:40.810Z,48.98
2019-02-24T19:07:09.434Z,47.73
2019-02-24T19:09:37.966Z,49.87
2019-02-24T19:12:06.998Z,43.53
2019-02-24T19:14:35.626Z,44.57
2019-02-24T19:17:04.594Z,47.88
2019-02-24T19:19:33.522Z,45.23
2019-02-24T19:22:02.427Z,38.20
2019-02-24T19:24:31.028Z,45.78
2019-02-24T19:26:59.864Z,48.50
2019-02-24T19:29:28.627Z,39.80
2019-02-24T19:31:57.196Z,47.37
2019-02-24T19:34:25.884Z,45.23
2019-02-24T19:36:54.422Z,47.63
2019-02-24T19:39:23.077Z,51.70
2019-02-24T19:41:52.538Z,55.43
2019-02-24T19:44:21.117Z,59.63
2019-02-24T19:46:50.114Z,54.57
2019-02-24T19:49:18.761Z,54.37
2019-02-24T19:51:47.754Z,64.60
2019-02-24T19:54:16.281Z,57.77
2019-02-24T19:56:45.174Z,60.10
2019-02-24T19:59:13.693Z,60.05
2019-02-24T20:01:42.854Z,70.13
2019-02-24T20:04:15.993Z,63.83
2019-02-24T20:06:40.963Z,67.42
2019-02-24T20:09:09.446Z,65.27
2019-02-24T20:11:38.042Z,66.07
2019-02-24T20:14:06.662Z,70.50
2019-02-24T20:16:35.370Z,69.33
2019-02-24T20:19:05.193Z,68.27
2019-02-24T20:21:34.361Z,62.67
2019-02-24T20:24:02.922Z,67.13
2019-02-24T20:26:31.510Z,58.77
2019-02-24T20:29:00.054Z,63.53
2019-02-24T20:31:28.925Z,62.37
2019-02-24T20:33:57.486Z,60.93
2019-02-24T20:36:26.078Z,64.10
2019-02-24T20:38:54.630Z,60.07
2019-02-24T20:41:23.498Z,57.13
2019-02-24T20:43:52.177Z,57.40
2019-02-24T20:46:20.962Z,55.30
2019-02-24T20:48:49.681Z,60.93
2019-02-24T20:51:18.218Z,55.53
2019-02-24T20:53:47.158Z,60.70
2019-02-24T20:56:16.393Z,61.45
2019-02-24T20:58:45.394Z,66.27
2019-02-24T21:01:14.185Z,59.40
2019-02-24T21:03:43.093Z,63.03
2019-02-24T21:06:11.649Z,65.00
2019-02-24T21:08:40.657Z,63.93
2019-02-24T21:11:09.330Z,76.40
2019-02-24T21:13:38.171Z,66.30
2019-02-24T21:16:06.690Z,66.33
2019-02-24T21:18:35.258Z,76.00
2019-02-24T21:21:03.842Z,63.33
2019-02-24T21:23:32.662Z,71.13
2019-02-24T21:26:01.194Z,78.00
2019-02-24T21:28:29.733Z,79.43
2019-02-24T21:30:58.386Z,92.13
2019-02-24T21:33:26.962Z,97.97
2019-02-24T21:35:56.014Z,85.60
2019-02-24T21:38:24.990Z,87.80
2019-02-24T21:41:07.946Z,92.70
2019-02-24T21:43:37.185Z,101.27
2019-02-24T21:46:05.782Z,97.13
2019-02-24T21:48:34.324Z,86.67
2019-02-24T21:51:03.020Z,96.47
2019-02-24T21:53:32.454Z,108.90
2019-02-24T21:56:01.806Z,115.17
2019-02-24T21:58:30.830Z,105.43
2019-02-24T22:00:59.586Z,100.87
2019-02-24T22:03:28.189Z,93.87
2019-02-24T22:05:57.016Z,106.27
2019-02-24T22:08:25.853Z,97.80
2019-02-24T22:10:54.805Z,102.07
2019-02-24T22:13:23.491Z,102.37
2019-02-24T22:15:52.252Z,85.77
2019-02-24T22:18:20.781Z,95.57
2019-02-24T22:20:49.353Z,93.80
2019-02-24T22:23:17.821Z,92.03
2019-02-24T22:25:46.353Z,89.83
2019-02-24T22:28:14.889Z,76.13
2019-02-24T22:30:43.381Z,82.27
2019-02-24T22:33:12.042Z,77.17
2019-02-24T22:35:40.685Z,74.10
2019-02-24T22:38:09.142Z,72.60
2019-02-24T22:40:37.993Z,68.20
2019-02-24T22:43:07.057Z,62.23
2019-02-24T22:45:35.569Z,57.63
2019-02-24T22:48:04.776Z,55.90
2019-02-24T22:50:33.349Z,52.33
2019-02-24T22:53:02.025Z,50.30
2019-02-24T22:55:30.613Z,45.33
2019-02-24T22:57:59.185Z,37.97
2019-02-24T23:00:39.725Z,41.03
2019-02-24T23:03:09.608Z,34.23
2019-02-24T23:05:38.228Z,37.20
2019-02-24T23:08:08.136Z,35.27
2019-02-24T23:10:36.843Z,37.43
2019-02-24T23:13:06.135Z,35.73
2019-02-24T23:15:35.189Z,32.80
2019-02-24T23:18:04.091Z,34.87
2019-02-24T23:20:33.888Z,38.00
2019-02-24T23:23:02.855Z,39.10
2019-02-24T23:25:32.199Z,38.43
2019-02-24T23:28:00.795Z,38.13
2019-02-24T23:30:29.551Z,36.97
2019-02-24T23:32:58.395Z,40.70
2019-02-24T23:35:29.151Z,36.83
2019-02-24T23:37:57.991Z,38.90
2019-02-24T23:40:26.548Z,37.63
2019-02-24T23:42:55.188Z,46.37
2019-02-24T23:45:23.759Z,43.50
2019-02-24T23:47:52.335Z,39.47
2019-02-24T23:50:21.503Z,38.80
2019-02-24T23:52:50.293Z,43.73
2019-02-24T23:55:18.836Z,39.40
2019-02-24T23:57:48.044Z,36.13
